Time;durP1;ratioP1;P1;durP2;ratioP2;P2;SDS_P1;SDS_P2;PMS_P1;PMS_P2;Temp;Humidity;BMP_temperature;BMP_pressure;BME280_temperature;BME280_humidity;BME280_pressure;Samples;Min_cycle;Max_cycle;Signal;HPM_P1;HPM_P2
2021/11/25 00:01:41;;;;;;;;;;;2.60;64.10;;;;;;5078595;28;19919;-64
2021/11/25 00:04:07;;;;;;;;;;;2.70;64.30;;;;;;5053315;28;20365;-65
2021/11/25 00:06:33;;;;;;;;;;;2.80;64.40;;;;;;5073073;28;20003;-64
2021/11/25 00:08:58;;;;;;;;;;;2.90;64.50;;;;;;5074675;28;20297;-64
2021/11/25 00:11:25;;;;;;;;;;;3.00;64.40;;;;;;5084003;28;19908;-64
2021/11/25 00:13:51;;;;;;;;;;;3.10;64.50;;;;;;5094697;28;19916;-65
2021/11/25 00:16:16;;;;;;;;;;;3.20;64.50;;;;;;5076649;28;20296;-64
2021/11/25 00:18:42;;;;;;;;;;;3.30;64.50;;;;;;5058106;28;20350;-64
2021/11/25 00:21:09;;;;;;;;;;;3.40;64.40;;;;;;5068843;28;19912;-64
2021/11/25 00:23:35;;;;;;;;;;;3.50;64.40;;;;;;5095077;28;20370;-65
2021/11/25 00:26:01;;;;;;;;;;;3.60;64.40;;;;;;5094662;28;19912;-65
2021/11/25 00:28:26;;;;;;;;;;;3.70;64.40;;;;;;5090068;28;19916;-64
2021/11/25 00:30:52;;;;;;;;;;;3.80;64.30;;;;;;5078566;28;19947;-65
2021/11/25 00:33:18;;;;;;;;;;;3.90;64.20;;;;;;5094524;28;19912;-63
2021/11/25 00:35:43;;;;;;;;;;;4.00;64.20;;;;;;5094659;28;19915;-64
2021/11/25 00:38:09;;;;;;;;;;;4.10;64.10;;;;;;5068802;28;19919;-63
2021/11/25 00:40:35;;;;;;;;;;;4.20;64.00;;;;;;5075998;28;19931;-62
2021/11/25 00:43:00;;;;;;;;;;;4.20;63.90;;;;;;5094521;28;19918;-63
2021/11/25 00:45:26;;;;;;;;;;;4.30;63.90;;;;;;5094439;28;20328;-63
2021/11/25 00:47:52;;;;;;;;;;;4.40;63.80;;;;;;5094349;28;20610;-63
2021/11/25 00:50:18;;;;;;;;;;;4.40;63.70;;;;;;5094340;28;20269;-63
2021/11/25 00:52:44;;;;;;;;;;;4.50;63.60;;;;;;5074401;28;19964;-63
2021/11/25 00:55:10;;;;;;;;;;;4.60;63.60;;;;;;5073986;28;20005;-63
2021/11/25 00:57:36;;;;;;;;;;;4.70;63.60;;;;;;5074002;28;19911;-63
2021/11/25 01:00:03;;;;;;;;;;;4.70;63.50;;;;;;5073891;28;19909;-63
2021/11/25 01:02:29;;;;;;;;;;;4.80;63.40;;;;;;5091012;28;19916;-63
2021/11/25 01:04:55;;;;;;;;;;;4.80;63.20;;;;;;5093986;28;19911;-63
2021/11/25 01:07:20;;;;;;;;;;;4.90;63.20;;;;;;5083817;28;20401;-64
2021/11/25 01:09:46;;;;;;;;;;;4.90;63.10;;;;;;5073597;28;20392;-63
2021/11/25 01:12:12;;;;;;;;;;;5.00;63.00;;;;;;5088009;28;19930;-63
2021/11/25 01:14:38;;;;;;;;;;;5.00;62.80;;;;;;5093688;28;19920;-63
2021/11/25 01:17:04;;;;;;;;;;;5.00;62.70;;;;;;5084015;28;19909;-63
2021/11/25 01:19:30;;;;;;;;;;;5.00;62.60;;;;;;5053236;28;19916;-63
2021/11/25 01:21:55;;;;;;;;;;;5.10;62.60;;;;;;5078069;28;19912;-63
2021/11/25 01:24:21;;;;;;;;;;;5.10;62.60;;;;;;5093608;28;19970;-64
2021/11/25 01:26:47;;;;;;;;;;;5.10;62.50;;;;;;5093497;28;19953;-63
2021/11/25 01:29:12;;;;;;;;;;;5.20;62.50;;;;;;5093431;28;19912;-63
2021/11/25 01:31:38;;;;;;;;;;;5.20;62.50;;;;;;5083140;28;19952;-65
2021/11/25 01:34:04;;;;;;;;;;;5.20;62.30;;;;;;5073166;28;19913;-64
2021/11/25 01:36:30;;;;;;;;;;;5.20;62.20;;;;;;5073059;28;20362;-63
2021/11/25 01:38:55;;;;;;;;;;;5.20;62.20;;;;;;5073049;28;20440;-63
2021/11/25 01:41:21;;;;;;;;;;;5.30;62.30;;;;;;5079463;28;20289;-62
2021/11/25 01:43:47;;;;;;;;;;;5.30;62.20;;;;;;5093325;28;20427;-63
2021/11/25 01:46:14;;;;;;;;;;;5.30;62.20;;;;;;5093248;28;19939;-62
2021/11/25 01:48:40;;;;;;;;;;;5.40;62.20;;;;;;5093133;28;20057;-63
2021/11/25 01:51:06;;;;;;;;;;;5.40;62.10;;;;;;5071694;28;20348;-63
2021/11/25 01:53:31;;;;;;;;;;;5.40;61.90;;;;;;5074626;28;19908;-63
2021/11/25 01:55:58;;;;;;;;;;;5.40;61.90;;;;;;5092921;28;19915;-64
2021/11/25 01:58:24;;;;;;;;;;;5.50;61.90;;;;;;5092911;28;19983;-63
2021/11/25 02:00:52;;;;;;;;;;;5.50;61.80;;;;;;5090181;28;20003;-64
2021/11/25 02:03:17;;;;;;;;;;;5.50;61.70;;;;;;5072450;28;19912;-64
2021/11/25 02:05:43;;;;;;;;;;;5.50;61.70;;;;;;5072290;28;19915;-64
2021/11/25 02:08:09;;;;;;;;;;;5.50;61.60;;;;;;5072218;28;19923;-64
2021/11/25 02:10:36;;;;;;;;;;;5.60;61.70;;;;;;5072327;28;20039;-64
2021/11/25 02:13:02;;;;;;;;;;;5.60;61.50;;;;;;5072249;28;20278;-64
2021/11/25 02:15:34;;;;;;;;;;;5.60;61.40;;;;;;5090675;28;19926;-63
2021/11/25 02:18:00;;;;;;;;;;;5.60;61.50;;;;;;5067515;28;19909;-64
2021/11/25 02:20:30;;;;;;;;;;;5.60;61.50;;;;;;5071445;28;20011;-64
2021/11/25 02:22:55;;;;;;;;;;;5.70;61.60;;;;;;5072033;28;19909;-64
2021/11/25 02:25:21;;;;;;;;;;;5.70;61.50;;;;;;5071875;28;19908;-64
2021/11/25 02:27:47;;;;;;;;;;;5.70;61.50;;;;;;5092123;28;19923;-63
2021/11/25 02:30:13;;;;;;;;;;;5.80;61.50;;;;;;5092176;28;19908;-64
2021/11/25 02:32:39;;;;;;;;;;;5.80;61.40;;;;;;5091447;28;20329;-64
2021/11/25 02:35:08;;;;;;;;;;;5.80;62.10;;;;;;5072102;28;19940;-64
2021/11/25 02:37:34;;;;;;;;;;;5.80;61.20;;;;;;5071965;28;19915;-64
2021/11/25 02:40:00;;;;;;;;;;;5.80;61.10;;;;;;5072607;28;20285;-64
2021/11/25 02:42:25;;;;;;;;;;;5.90;61.10;;;;;;5071885;28;19912;-64
2021/11/25 02:44:51;;;;;;;;;;;5.90;61.10;;;;;;5071943;28;19904;-64
2021/11/25 02:47:17;;;;;;;;;;;5.90;61.00;;;;;;5071884;28;20717;-64
2021/11/25 02:49:42;;;;;;;;;;;5.90;61.10;;;;;;5071793;28;19959;-64
2021/11/25 02:52:08;;;;;;;;;;;5.90;61.00;;;;;;5072679;28;19920;-64
2021/11/25 02:54:34;;;;;;;;;;;5.90;60.70;;;;;;5071784;28;19915;-64
2021/11/25 02:56:59;;;;;;;;;;;5.90;60.60;;;;;;5054056;28;19909;-64
2021/11/25 02:59:25;;;;;;;;;;;5.90;60.50;;;;;;5071834;28;19924;-64
2021/11/25 03:01:51;;;;;;;;;;;5.90;60.40;;;;;;5071721;28;19995;-64
2021/11/25 03:04:16;;;;;;;;;;;5.90;60.40;;;;;;5078573;28;20034;-64
2021/11/25 03:06:42;;;;;;;;;;;5.90;60.40;;;;;;5071727;28;19908;-64
2021/11/25 03:09:07;;;;;;;;;;;5.80;60.30;;;;;;5053542;28;19913;-64
2021/11/25 03:11:34;;;;;;;;;;;5.80;60.30;;;;;;5071527;28;19913;-64
2021/11/25 03:14:03;;;;;;;;;;;5.80;60.30;;;;;;5071408;28;19932;-63
2021/11/25 03:16:28;;;;;;;;;;;5.80;60.40;;;;;;5083748;28;19912;-63
2021/11/25 03:18:55;;;;;;;;;;;5.80;60.50;;;;;;5051865;28;20309;-64
2021/11/25 03:21:22;;;;;;;;;;;5.80;60.50;;;;;;5051625;28;19912;-63
2021/11/25 03:23:48;;;;;;;;;;;5.80;60.50;;;;;;5051612;28;19911;-63
2021/11/25 03:26:15;;;;;;;;;;;5.80;60.40;;;;;;5051462;28;19909;-63
2021/11/25 03:28:43;;;;;;;;;;;5.80;60.40;;;;;;5063722;28;19920;-63
2021/11/25 03:31:17;;;;;;;;;;;5.80;60.40;;;;;;5053511;28;19916;-63
2021/11/25 03:33:42;;;;;;;;;;;5.80;60.50;;;;;;5071447;28;19916;-63
2021/11/25 03:36:09;;;;;;;;;;;5.80;60.50;;;;;;5071392;28;19912;-63
2021/11/25 03:38:35;;;;;;;;;;;5.80;60.50;;;;;;5071470;28;20327;-63
2021/11/25 03:41:01;;;;;;;;;;;5.90;60.60;;;;;;5073252;28;19912;-63
2021/11/25 03:43:27;;;;;;;;;;;5.90;60.70;;;;;;5075252;28;19908;-64
2021/11/25 03:45:53;;;;;;;;;;;5.90;60.60;;;;;;5075253;28;19915;-63
2021/11/25 03:48:23;;;;;;;;;;;5.90;60.60;;;;;;5057270;28;19913;-64
2021/11/25 03:50:50;;;;;;;;;;;6.00;60.70;;;;;;5075191;28;19912;-64
2021/11/25 03:53:16;;;;;;;;;;;6.00;60.50;;;;;;5082483;28;19912;-64
2021/11/25 03:55:41;;;;;;;;;;;6.00;60.20;;;;;;5095244;28;19915;-65
2021/11/25 03:58:08;;;;;;;;;;;6.00;60.10;;;;;;5095235;28;19908;-64
2021/11/25 04:00:33;;;;;;;;;;;6.00;60.00;;;;;;5089692;28;19913;-64
2021/11/25 04:03:00;;;;;;;;;;;6.00;60.00;;;;;;5074676;28;19912;-64
2021/11/25 04:05:25;;;;;;;;;;;6.00;60.00;;;;;;5078007;28;19926;-64
2021/11/25 04:07:51;;;;;;;;;;;6.00;60.00;;;;;;5094869;28;20019;-64
2021/11/25 04:10:17;;;;;;;;;;;6.00;60.00;;;;;;5094916;28;19908;-63
2021/11/25 04:12:43;;;;;;;;;;;6.00;59.90;;;;;;5094896;28;19959;-64
2021/11/25 04:15:10;;;;;;;;;;;6.00;59.80;;;;;;5094763;28;20496;-64
2021/11/25 04:17:36;;;;;;;;;;;6.00;59.70;;;;;;5076429;28;20007;-64
2021/11/25 04:20:02;;;;;;;;;;;6.00;59.70;;;;;;5057132;28;20019;-64
2021/11/25 04:22:27;;;;;;;;;;;5.90;59.70;;;;;;5074526;28;19909;-64
2021/11/25 04:24:54;;;;;;;;;;;5.90;59.80;;;;;;5074428;28;19962;-64
2021/11/25 04:27:20;;;;;;;;;;;6.00;59.90;;;;;;5074349;28;19923;-64
2021/11/25 04:29:51;;;;;;;;;;;5.90;59.80;;;;;;5074652;28;19909;-64
2021/11/25 04:37:46;;;;;;;;;;;6.00;59.80;;;;;;5075355;28;19915;-65
2021/11/25 04:40:12;;;;;;;;;;;6.00;59.70;;;;;;5075034;28;20354;-64
2021/11/25 04:42:37;;;;;;;;;;;6.00;59.60;;;;;;5077743;28;20015;-63
2021/11/25 04:45:04;;;;;;;;;;;6.00;59.50;;;;;;5095251;28;19915;-64
2021/11/25 04:47:30;;;;;;;;;;;6.00;59.50;;;;;;5095133;28;19912;-63
2021/11/25 04:49:55;;;;;;;;;;;5.90;59.40;;;;;;5095261;28;19915;-64
2021/11/25 04:52:21;;;;;;;;;;;5.90;59.50;;;;;;5075733;28;19912;-64
2021/11/25 04:54:47;;;;;;;;;;;6.00;59.70;;;;;;5095074;28;19957;-64
2021/11/25 04:57:12;;;;;;;;;;;6.00;60.20;;;;;;5074708;28;19912;-64
2021/11/25 04:59:38;;;;;;;;;;;6.00;59.50;;;;;;5073510;28;20435;-64
2021/11/25 05:02:04;;;;;;;;;;;6.00;59.50;;;;;;5074607;28;19912;-64
2021/11/25 05:04:31;;;;;;;;;;;6.00;59.40;;;;;;5074604;28;19909;-64
2021/11/25 05:06:56;;;;;;;;;;;6.00;59.40;;;;;;5074579;28;20328;-64
2021/11/25 05:09:22;;;;;;;;;;;6.00;59.30;;;;;;5074018;28;20007;-64
2021/11/25 05:11:48;;;;;;;;;;;6.00;59.30;;;;;;5094734;28;20262;-64
2021/11/25 05:14:13;;;;;;;;;;;6.00;59.30;;;;;;5094366;28;19927;-64
2021/11/25 05:16:39;;;;;;;;;;;5.90;59.30;;;;;;5094502;28;19915;-64
2021/11/25 05:19:04;;;;;;;;;;;5.90;59.30;;;;;;5094454;28;20386;-64
2021/11/25 05:21:30;;;;;;;;;;;6.00;59.40;;;;;;5092488;28;19916;-64
2021/11/25 05:23:56;;;;;;;;;;;6.00;59.40;;;;;;5094251;28;19912;-64
2021/11/25 05:26:21;;;;;;;;;;;6.00;59.40;;;;;;5094228;28;19940;-64
2021/11/25 05:28:47;;;;;;;;;;;6.00;59.40;;;;;;5094129;28;19912;-64
2021/11/25 05:31:13;;;;;;;;;;;6.00;59.30;;;;;;5075975;28;19908;-64
2021/11/25 05:33:38;;;;;;;;;;;6.00;59.30;;;;;;5062332;28;20354;-64
2021/11/25 05:36:04;;;;;;;;;;;6.00;59.20;;;;;;5073761;28;19958;-64
2021/11/25 05:38:29;;;;;;;;;;;6.00;59.20;;;;;;5073640;28;19915;-64
2021/11/25 05:40:55;;;;;;;;;;;6.00;59.10;;;;;;5073890;28;19916;-64
2021/11/25 05:43:21;;;;;;;;;;;6.00;59.10;;;;;;5073803;28;20057;-64
2021/11/25 05:45:47;;;;;;;;;;;6.00;59.10;;;;;;5065545;28;19919;-64
2021/11/25 05:48:12;;;;;;;;;;;6.00;59.10;;;;;;5093922;28;19912;-64
2021/11/25 05:50:38;;;;;;;;;;;6.00;59.20;;;;;;5075751;28;20387;-64
2021/11/25 05:53:04;;;;;;;;;;;6.00;59.20;;;;;;5093816;28;19908;-63
2021/11/25 05:55:32;;;;;;;;;;;6.00;59.20;;;;;;5093848;28;19958;-64
2021/11/25 05:57:58;;;;;;;;;;;6.10;59.20;;;;;;5082878;28;19912;-63
2021/11/25 06:00:24;;;;;;;;;;;6.00;59.00;;;;;;5073219;28;19951;-65
2021/11/25 06:02:50;;;;;;;;;;;6.00;58.90;;;;;;5073496;28;19954;-64
2021/11/25 06:05:16;;;;;;;;;;;6.00;59.00;;;;;;5084951;28;20408;-65
2021/11/25 06:07:45;;;;;;;;;;;5.90;58.90;;;;;;5093516;28;19912;-64
2021/11/25 06:10:11;;;;;;;;;;;5.90;58.90;;;;;;5084630;28;19912;-64
2021/11/25 06:12:37;;;;;;;;;;;5.90;58.80;;;;;;5073107;28;19904;-64
2021/11/25 06:15:03;;;;;;;;;;;5.90;58.80;;;;;;5072956;28;19920;-64
2021/11/25 06:17:29;;;;;;;;;;;5.90;58.70;;;;;;5072980;28;19932;-64
2021/11/25 06:19:55;;;;;;;;;;;5.90;58.70;;;;;;5073033;28;19963;-63
2021/11/25 06:22:21;;;;;;;;;;;5.80;58.70;;;;;;5073813;28;19913;-64
2021/11/25 06:24:47;;;;;;;;;;;5.80;58.70;;;;;;5073048;28;19912;-64
2021/11/25 06:27:13;;;;;;;;;;;5.80;58.60;;;;;;5073005;28;19959;-64
2021/11/25 06:29:38;;;;;;;;;;;5.80;58.60;;;;;;5072874;28;20366;-64
2021/11/25 06:32:04;;;;;;;;;;;5.80;58.60;;;;;;5072868;28;19908;-64
2021/11/25 06:34:30;;;;;;;;;;;5.70;58.50;;;;;;5073732;28;19935;-63
2021/11/25 06:36:55;;;;;;;;;;;5.70;58.50;;;;;;5091170;28;20011;-64
2021/11/25 06:39:21;;;;;;;;;;;5.70;58.60;;;;;;5093113;28;20280;-65
2021/11/25 06:41:47;;;;;;;;;;;5.70;58.50;;;;;;5093108;28;19908;-64
2021/11/25 06:44:12;;;;;;;;;;;5.60;58.50;;;;;;5092999;28;20369;-64
2021/11/25 06:46:38;;;;;;;;;;;5.60;58.50;;;;;;5090400;28;19914;-64
2021/11/25 06:49:04;;;;;;;;;;;5.60;58.50;;;;;;5054698;28;20007;-64
2021/11/25 06:51:29;;;;;;;;;;;5.60;58.50;;;;;;5072760;28;19962;-64
2021/11/25 06:53:55;;;;;;;;;;;5.60;58.50;;;;;;5072769;28;19913;-64
2021/11/25 06:56:21;;;;;;;;;;;5.60;58.50;;;;;;5072791;28;19909;-64
2021/11/25 06:58:49;;;;;;;;;;;5.60;58.60;;;;;;5072819;28;19908;-64
2021/11/25 07:01:15;;;;;;;;;;;5.60;58.60;;;;;;5092614;28;19908;-64
2021/11/25 07:03:41;;;;;;;;;;;5.50;58.70;;;;;;5092826;28;20419;-64
2021/11/25 07:06:06;;;;;;;;;;;5.50;58.60;;;;;;5092771;28;20406;-64
2021/11/25 07:08:32;;;;;;;;;;;5.50;58.60;;;;;;5092801;28;20241;-64
2021/11/25 07:10:58;;;;;;;;;;;5.50;58.60;;;;;;5091464;28;19912;-63
2021/11/25 07:13:27;;;;;;;;;;;5.60;58.60;;;;;;5092187;28;19908;-64
2021/11/25 07:15:53;;;;;;;;;;;5.50;58.60;;;;;;5093833;28;20304;-64
2021/11/25 07:18:18;;;;;;;;;;;5.60;58.60;;;;;;5096935;28;19915;-64
2021/11/25 07:20:44;;;;;;;;;;;5.60;58.50;;;;;;5096910;28;19908;-63
2021/11/25 07:23:10;;;;;;;;;;;5.60;58.50;;;;;;5096156;28;19951;-64
2021/11/25 07:25:35;;;;;;;;;;;5.60;58.50;;;;;;5093273;28;19912;-64
2021/11/25 07:28:01;;;;;;;;;;;5.60;58.50;;;;;;5096566;28;19959;-65
2021/11/25 07:30:26;;;;;;;;;;;5.50;58.40;;;;;;5096544;28;20332;-64
2021/11/25 07:32:52;;;;;;;;;;;5.60;58.40;;;;;;5096668;28;19939;-64
2021/11/25 07:35:19;;;;;;;;;;;5.60;58.40;;;;;;5096504;28;20255;-63
2021/11/25 07:37:46;;;;;;;;;;;5.50;58.30;;;;;;5078038;28;19920;-64
2021/11/25 07:40:12;;;;;;;;;;;5.50;58.30;;;;;;5076153;28;19908;-64
2021/11/25 07:42:37;;;;;;;;;;;5.50;58.30;;;;;;5076084;28;20277;-64
2021/11/25 07:45:04;;;;;;;;;;;5.60;58.40;;;;;;5076208;28;20281;-64
2021/11/25 07:47:33;;;;;;;;;;;5.60;58.40;;;;;;5058150;28;19942;-64
2021/11/25 07:50:09;;;;;;;;;;;5.60;58.50;;;;;;5089559;28;19912;-64
2021/11/25 07:52:34;;;;;;;;;;;5.60;59.10;;;;;;5096356;28;19950;-64
2021/11/25 07:55:00;;;;;;;;;;;5.70;58.70;;;;;;5096117;28;19908;-64
2021/11/25 07:57:27;;;;;;;;;;;5.80;58.80;;;;;;5086703;28;20366;-64
2021/11/25 07:59:52;;;;;;;;;;;5.80;58.60;;;;;;5076554;28;20369;-64
2021/11/25 08:02:20;;;;;;;;;;;5.90;58.60;;;;;;5096029;28;19908;-64
2021/11/25 08:04:49;;;;;;;;;;;5.90;58.50;;;;;;5096048;28;19908;-64
2021/11/25 08:07:15;;;;;;;;;;;5.90;58.50;;;;;;5095952;28;19912;-64
2021/11/25 08:09:40;;;;;;;;;;;6.00;58.40;;;;;;5095937;28;19961;-64
2021/11/25 08:12:07;;;;;;;;;;;6.00;58.30;;;;;;5076594;28;20336;-64
2021/11/25 08:14:32;;;;;;;;;;;6.00;58.30;;;;;;5075236;28;19921;-64
2021/11/25 08:16:59;;;;;;;;;;;6.10;58.40;;;;;;5075529;28;19912;-64
2021/11/25 08:19:28;;;;;;;;;;;6.10;58.40;;;;;;5075514;28;19923;-64
2021/11/25 08:21:54;;;;;;;;;;;6.10;58.40;;;;;;5075465;28;19912;-64
2021/11/25 08:24:20;;;;;;;;;;;6.20;58.30;;;;;;5092039;28;20334;-64
2021/11/25 08:26:46;;;;;;;;;;;6.20;58.20;;;;;;5095140;28;19908;-64
2021/11/25 08:29:11;;;;;;;;;;;6.20;58.10;;;;;;5095471;28;19962;-64
2021/11/25 08:31:37;;;;;;;;;;;6.20;58.00;;;;;;5095475;28;19951;-64
2021/11/25 08:34:03;;;;;;;;;;;6.30;58.00;;;;;;5075014;28;19963;-64
2021/11/25 08:36:29;;;;;;;;;;;6.30;57.90;;;;;;5071054;28;19934;-65
2021/11/25 08:38:55;;;;;;;;;;;6.30;57.90;;;;;;5074174;28;19909;-64
2021/11/25 08:41:21;;;;;;;;;;;6.30;57.90;;;;;;5075061;28;20362;-64
2021/11/25 08:43:47;;;;;;;;;;;6.40;57.90;;;;;;5074346;28;19973;-64
2021/11/25 08:46:13;;;;;;;;;;;6.40;58.00;;;;;;5086876;28;20361;-65
2021/11/25 08:48:38;;;;;;;;;;;6.40;57.70;;;;;;5094800;28;19924;-64
2021/11/25 08:51:04;;;;;;;;;;;6.40;57.60;;;;;;5095188;28;20012;-64
2021/11/25 08:53:30;;;;;;;;;;;6.40;57.60;;;;;;5095136;28;19946;-65
2021/11/25 08:55:56;;;;;;;;;;;6.40;57.60;;;;;;5085002;28;19912;-64
2021/11/25 08:58:22;;;;;;;;;;;6.40;57.60;;;;;;5087399;28;20305;-64
2021/11/25 09:00:48;;;;;;;;;;;6.50;57.60;;;;;;5095115;28;19908;-64
2021/11/25 09:03:13;;;;;;;;;;;6.50;57.60;;;;;;5095034;28;19908;-64
2021/11/25 09:05:39;;;;;;;;;;;6.50;57.50;;;;;;5087722;28;20323;-65
2021/11/25 09:08:05;;;;;;;;;;;6.50;57.40;;;;;;5074325;28;19970;-65
2021/11/25 09:10:32;;;;;;;;;;;6.50;57.40;;;;;;5074539;28;19958;-65
2021/11/25 09:12:58;;;;;;;;;;;6.50;57.30;;;;;;5062057;28;19919;-65
2021/11/25 09:15:24;;;;;;;;;;;6.50;57.20;;;;;;5080466;28;19920;-65
2021/11/25 09:17:50;;;;;;;;;;;6.50;57.20;;;;;;5073903;28;19912;-65
2021/11/25 09:20:16;;;;;;;;;;;6.50;57.20;;;;;;5074458;28;19908;-65
2021/11/25 09:22:41;;;;;;;;;;;6.50;57.10;;;;;;5074288;28;19961;-62
2021/11/25 09:25:09;;;;;;;;;;;6.50;57.10;;;;;;5074058;28;19909;-65
2021/11/25 09:27:34;;;;;;;;;;;6.60;57.20;;;;;;5074221;28;19920;-65
2021/11/25 09:30:00;;;;;;;;;;;6.60;57.20;;;;;;5074064;28;19912;-65
2021/11/25 09:32:26;;;;;;;;;;;6.60;57.10;;;;;;5074057;28;20274;-65
2021/11/25 09:34:52;;;;;;;;;;;6.70;57.00;;;;;;5059455;28;20376;-64
2021/11/25 09:37:18;;;;;;;;;;;6.70;57.00;;;;;;5074040;28;20014;-65
2021/11/25 09:39:43;;;;;;;;;;;6.70;56.90;;;;;;5085588;28;19994;-65
2021/11/25 09:42:09;;;;;;;;;;;6.70;56.70;;;;;;5073979;28;19912;-64
2021/11/25 09:44:35;;;;;;;;;;;6.70;56.60;;;;;;5073654;28;19911;-65
2021/11/25 09:47:00;;;;;;;;;;;6.70;56.60;;;;;;5073565;28;19973;-65
2021/11/25 09:49:27;;;;;;;;;;;6.70;56.60;;;;;;5077279;28;19963;-65
2021/11/25 09:51:54;;;;;;;;;;;6.70;56.60;;;;;;5073836;28;19916;-65
2021/11/25 09:54:20;;;;;;;;;;;6.70;56.60;;;;;;5073588;28;20461;-65
2021/11/25 09:56:46;;;;;;;;;;;6.80;56.70;;;;;;5055951;28;19908;-66
2021/11/25 09:59:12;;;;;;;;;;;6.80;56.60;;;;;;5079177;28;19909;-66
2021/11/25 10:01:38;;;;;;;;;;;6.80;56.50;;;;;;5084761;28;19928;-67
2021/11/25 10:04:04;;;;;;;;;;;6.80;56.40;;;;;;5073518;28;19913;-67
2021/11/25 10:06:32;;;;;;;;;;;6.80;56.30;;;;;;5084061;28;19922;-66
2021/11/25 10:08:58;;;;;;;;;;;6.80;56.40;;;;;;5086741;28;20358;-67
2021/11/25 10:11:24;;;;;;;;;;;6.90;56.50;;;;;;5076587;28;19966;-66
2021/11/25 10:13:55;;;;;;;;;;;6.90;56.50;;;;;;5058519;28;19920;-67
2021/11/25 10:16:35;;;;;;;;;;;7.00;56.50;;;;;;5081115;28;19918;-67
2021/11/25 10:19:14;;;;;;;;;;;7.00;56.60;;;;;;5073146;28;19905;-67
2021/11/25 10:21:41;;;;;;;;;;;7.10;56.80;;;;;;5073125;28;20277;-67
2021/11/25 10:24:07;;;;;;;;;;;7.20;56.80;;;;;;5073042;28;19908;-67
2021/11/25 10:26:34;;;;;;;;;;;7.30;56.80;;;;;;5077862;28;19912;-65
2021/11/25 10:29:01;;;;;;;;;;;7.40;56.80;;;;;;5091547;28;19924;-65
2021/11/25 10:31:29;;;;;;;;;;;7.50;56.50;;;;;;5075077;28;19909;-65
2021/11/25 10:34:08;;;;;;;;;;;7.50;56.20;;;;;;5072944;28;19912;-65
2021/11/25 10:36:41;;;;;;;;;;;7.60;56.10;;;;;;5090740;28;19912;-65
2021/11/25 10:39:13;;;;;;;;;;;7.60;56.00;;;;;;5093251;28;19909;-65
2021/11/25 10:41:40;;;;;;;;;;;7.70;56.00;;;;;;5085477;28;19927;-66
2021/11/25 10:44:06;;;;;;;;;;;7.70;56.10;;;;;;5072874;28;19909;-66
2021/11/25 10:46:46;;;;;;;;;;;7.80;56.20;;;;;;5072734;28;20354;-65
2021/11/25 10:49:12;;;;;;;;;;;7.80;56.10;;;;;;5072759;28;19935;-66
2021/11/25 10:51:39;;;;;;;;;;;7.90;55.90;;;;;;5061050;28;20285;-66
2021/11/25 10:54:08;;;;;;;;;;;7.90;55.70;;;;;;5076540;28;19915;-66
2021/11/25 10:56:35;;;;;;;;;;;7.90;55.60;;;;;;5072767;28;19908;-66
2021/11/25 10:59:00;;;;;;;;;;;8.00;55.70;;;;;;5072794;28;19913;-65
2021/11/25 11:01:33;;;;;;;;;;;8.00;55.60;;;;;;5077341;28;19919;-65
2021/11/25 11:03:59;;;;;;;;;;;8.00;55.50;;;;;;5092741;28;20088;-66
2021/11/25 11:06:35;;;;;;;;;;;8.10;55.40;;;;;;5086138;28;19958;-66
2021/11/25 11:09:01;;;;;;;;;;;8.10;55.30;;;;;;5072673;28;20000;-66
2021/11/25 11:11:27;;;;;;;;;;;8.10;55.30;;;;;;5054657;28;19955;-65
2021/11/25 11:14:11;;;;;;;;;;;8.20;55.30;;;;;;5075639;28;19916;-65
2021/11/25 11:16:49;;;;;;;;;;;8.10;55.10;;;;;;5072523;28;19908;-66
2021/11/25 11:19:15;;;;;;;;;;;8.20;54.90;;;;;;5072646;28;19916;-66
2021/11/25 11:21:49;;;;;;;;;;;8.20;54.80;;;;;;5082198;28;19908;-65
2021/11/25 11:24:17;;;;;;;;;;;8.20;54.70;;;;;;5091871;28;19915;-65
2021/11/25 11:26:47;;;;;;;;;;;8.20;55.10;;;;;;5069769;28;20289;-65
2021/11/25 11:29:14;;;;;;;;;;;8.10;54.30;;;;;;5071742;28;19962;-66
2021/11/25 11:31:41;;;;;;;;;;;8.10;54.10;;;;;;5069661;28;19916;-65
2021/11/25 11:34:08;;;;;;;;;;;8.10;54.30;;;;;;5069450;28;19913;-65
2021/11/25 11:36:37;;;;;;;;;;;8.00;54.30;;;;;;5053327;28;19955;-65
2021/11/25 11:39:03;;;;;;;;;;;8.00;54.40;;;;;;5072301;28;19977;-65
2021/11/25 11:41:31;;;;;;;;;;;8.00;54.40;;;;;;5072221;28;20377;-66
2021/11/25 11:43:57;;;;;;;;;;;8.10;54.50;;;;;;5082978;28;19955;-66
2021/11/25 11:46:24;;;;;;;;;;;8.10;54.40;;;;;;5086395;28;19919;-65
2021/11/25 11:48:51;;;;;;;;;;;8.10;54.50;;;;;;5072127;28;20372;-65
2021/11/25 11:51:18;;;;;;;;;;;8.10;54.60;;;;;;5071995;28;19958;-65
2021/11/25 11:53:44;;;;;;;;;;;8.10;54.70;;;;;;5092510;28;20369;-66
2021/11/25 11:56:12;;;;;;;;;;;8.20;54.70;;;;;;5092605;28;20319;-65
2021/11/25 11:58:53;;;;;;;;;;;8.20;54.60;;;;;;5076992;28;20046;-65
2021/11/25 12:01:19;;;;;;;;;;;8.20;54.40;;;;;;5073402;28;19965;-64
2021/11/25 12:03:45;;;;;;;;;;;8.30;54.50;;;;;;5080971;28;19913;-65
2021/11/25 12:06:10;;;;;;;;;;;8.40;54.60;;;;;;5057916;28;20372;-64
2021/11/25 12:08:37;;;;;;;;;;;8.40;54.60;;;;;;5094286;28;19916;-65
2021/11/25 12:11:05;;;;;;;;;;;8.50;54.50;;;;;;5095631;28;20407;-64
2021/11/25 12:13:40;;;;;;;;;;;8.60;54.40;;;;;;5076583;28;20297;-65
2021/11/25 12:16:17;;;;;;;;;;;8.60;54.30;;;;;;5075491;28;20370;-64
2021/11/25 12:18:52;;;;;;;;;;;8.60;54.10;;;;;;5077135;28;19913;-65
2021/11/25 12:21:38;;;;;;;;;;;8.60;53.90;;;;;;5074802;28;20225;-65
2021/11/25 12:24:30;;;;;;;;;;;8.70;53.90;;;;;;5075321;28;19944;-65
2021/11/25 12:26:59;;;;;;;;;;;8.70;53.80;;;;;;5048974;28;20361;-65
2021/11/25 12:29:36;;;;;;;;;;;8.70;53.90;;;;;;5073344;28;19916;-66
2021/11/25 12:35:11;;;;;;;;;;;8.70;53.80;;;;;;5079176;28;19919;-66
2021/11/25 12:37:43;;;;;;;;;;;8.70;53.60;;;;;;5075042;28;19952;-66
2021/11/25 12:40:21;;;;;;;;;;;8.70;53.50;;;;;;5074937;28;19943;-66
2021/11/25 12:42:48;;;;;;;;;;;8.70;53.60;;;;;;5074979;28;20254;-64
2021/11/25 12:45:18;;;;;;;;;;;8.70;53.40;;;;;;5074929;28;19919;-65
2021/11/25 12:47:44;;;;;;;;;;;8.70;53.20;;;;;;5089332;28;20011;-64
2021/11/25 12:50:16;;;;;;;;;;;8.70;53.00;;;;;;5088917;28;20032;-65
2021/11/25 12:52:42;;;;;;;;;;;8.70;52.90;;;;;;5074744;28;20329;-65
2021/11/25 12:55:09;;;;;;;;;;;8.60;53.00;;;;;;5056628;28;19914;-66
2021/11/25 12:57:51;;;;;;;;;;;8.60;53.00;;;;;;5074538;28;19913;-66
2021/11/25 13:00:24;;;;;;;;;;;8.60;53.00;;;;;;5054801;28;19963;-64
2021/11/25 13:03:00;;;;;;;;;;;8.50;53.00;;;;;;5054825;28;19980;-65
2021/11/25 13:05:25;;;;;;;;;;;8.50;53.10;;;;;;5064093;28;19915;-66
2021/11/25 13:07:51;;;;;;;;;;;8.50;53.00;;;;;;5074560;28;20362;-65
2021/11/25 13:10:24;;;;;;;;;;;8.40;53.10;;;;;;5074561;28;19913;-65
2021/11/25 13:12:49;;;;;;;;;;;8.40;53.10;;;;;;5074138;28;19904;-65
2021/11/25 13:15:15;;;;;;;;;;;8.40;53.10;;;;;;5075824;28;19920;-65
2021/11/25 13:17:57;;;;;;;;;;;8.40;53.10;;;;;;5081509;28;20381;-65
2021/11/25 13:20:42;;;;;;;;;;;8.40;53.10;;;;;;5054286;28;20267;-65
2021/11/25 13:23:08;;;;;;;;;;;8.40;53.00;;;;;;5049434;28;19909;-67
2021/11/25 13:25:33;;;;;;;;;;;8.30;53.00;;;;;;5074019;28;19920;-71
2021/11/25 13:27:59;;;;;;;;;;;8.30;53.00;;;;;;5086847;28;20003;-73
2021/11/25 13:30:24;;;;;;;;;;;8.20;52.90;;;;;;5089580;28;20293;-73
2021/11/25 13:32:51;;;;;;;;;;;8.10;52.80;;;;;;5092279;28;19908;-69
2021/11/25 13:35:19;;;;;;;;;;;8.10;52.90;;;;;;5094252;28;19912;-81
2021/11/25 13:37:52;;;;;;;;;;;8.10;52.90;;;;;;5059331;28;19969;-78
2021/11/25 13:40:19;;;;;;;;;;;8.00;53.00;;;;;;5055859;28;19958;-82
2021/11/25 13:42:45;;;;;;;;;;;8.00;52.90;;;;;;5073602;28;19997;-74
2021/11/25 13:45:19;;;;;;;;;;;7.90;52.90;;;;;;5072992;28;19909;-77
2021/11/25 13:47:45;;;;;;;;;;;7.90;53.00;;;;;;5055782;28;19913;-69
2021/11/25 13:50:12;;;;;;;;;;;7.90;53.00;;;;;;5073812;28;19915;-69
2021/11/25 13:52:39;;;;;;;;;;;7.90;53.20;;;;;;5073961;28;20278;-70
2021/11/25 13:55:08;;;;;;;;;;;7.80;53.20;;;;;;5073643;28;19915;-69
2021/11/25 13:57:35;;;;;;;;;;;7.80;53.20;;;;;;5055855;28;19983;-70
2021/11/25 14:00:02;;;;;;;;;;;7.80;53.20;;;;;;5055719;28;19908;-71
2021/11/25 14:02:28;;;;;;;;;;;7.70;53.20;;;;;;5073845;28;19908;-71
2021/11/25 14:05:01;;;;;;;;;;;7.70;53.20;;;;;;5055959;28;20323;-73
2021/11/25 14:07:27;;;;;;;;;;;7.70;53.20;;;;;;5073431;28;19916;-72
2021/11/25 14:10:08;;;;;;;;;;;7.60;53.20;;;;;;5055187;28;19963;-70
2021/11/25 14:12:35;;;;;;;;;;;7.60;53.30;;;;;;5073356;28;20002;-71
2021/11/25 14:15:01;;;;;;;;;;;7.60;53.30;;;;;;5072948;28;20388;-72
2021/11/25 14:17:27;;;;;;;;;;;7.60;53.30;;;;;;5073092;28;20000;-74
2021/11/25 14:19:54;;;;;;;;;;;7.60;53.30;;;;;;5072899;28;19944;-69
2021/11/25 14:22:27;;;;;;;;;;;7.50;53.30;;;;;;5054393;28;20314;-71
2021/11/25 14:24:54;;;;;;;;;;;7.60;53.40;;;;;;5072977;28;19995;-70
2021/11/25 14:30:05;;;;;;;;;;;7.50;53.50;;;;;;5073408;28;19908;-70
2021/11/25 14:32:34;;;;;;;;;;;7.50;53.50;;;;;;5072557;28;19983;-70
2021/11/25 14:35:00;;;;;;;;;;;7.50;53.50;;;;;;5073176;28;19923;-70
2021/11/25 14:37:28;;;;;;;;;;;7.50;53.40;;;;;;5072926;28;20365;-70
2021/11/25 14:39:54;;;;;;;;;;;7.50;53.40;;;;;;5072814;28;19961;-68
2021/11/25 14:42:21;;;;;;;;;;;7.50;53.40;;;;;;5072822;28;19998;-68